Terminal Aerodrome Forecast
Issued by NWS

Home | Current Version | Previous Version | Graphics & Text | Print | Product List | Glossary On
Versions: 1 2 3 4 5 6 7 8 9 10 11 12 13 14 15 16 17 18 19 20 21 22 23 24 25 26 27 28 29 30 31 32 33 34 35 36 37 38 39
000
FTUS43 KGRB 201700
TAFRHI
TAF
KRHI 201735Z 2018/2118 27014G23KT P6SM BKN030
     FM202300 28007KT P6SM SCT035 BKN250
     FM210300 32003KT 5SM -SHRA BR SCT009 OVC015
      TEMPO 2105/2109 3SM SHRA BR OVC009
     FM211200 36006KT P6SM VCSH BKN015
     FM211500 34009KT P6SM BKN025=

USA.gov is the U.S. government's official web portal to all federal, state and local government web resources and services.